sensor_id;sensor_type;location;lat;lon;timestamp;temperature;humidity
11989;DHT22;6054;50.966;7.094;2023-09-19T00:02:21;26.00;51.10
11989;DHT22;6054;50.966;7.094;2023-09-19T00:04:47;26.10;51.40
11989;DHT22;6054;50.966;7.094;2023-09-19T00:07:15;26.00;52.00
11989;DHT22;6054;50.966;7.094;2023-09-19T00:09:42;26.00;51.20
11989;DHT22;6054;50.966;7.094;2023-09-19T00:12:09;26.00;51.00
11989;DHT22;6054;50.966;7.094;2023-09-19T00:14:38;26.00;50.90
11989;DHT22;6054;50.966;7.094;2023-09-19T00:17:06;26.00;51.10
11989;DHT22;6054;50.966;7.094;2023-09-19T00:19:35;25.90;51.10
11989;DHT22;6054;50.966;7.094;2023-09-19T00:22:02;25.90;51.10
11989;DHT22;6054;50.966;7.094;2023-09-19T00:24:29;25.90;51.00
11989;DHT22;6054;50.966;7.094;2023-09-19T00:26:56;25.90;51.00
11989;DHT22;6054;50.966;7.094;2023-09-19T00:29:25;25.90;51.10
11989;DHT22;6054;50.966;7.094;2023-09-19T00:31:54;25.90;51.10
11989;DHT22;6054;50.966;7.094;2023-09-19T00:34:22;25.90;51.20
11989;DHT22;6054;50.966;7.094;2023-09-19T00:36:50;26.00;51.20
11989;DHT22;6054;50.966;7.094;2023-09-19T00:39:19;25.80;51.30
11989;DHT22;6054;50.966;7.094;2023-09-19T00:41:47;26.00;51.40
11989;DHT22;6054;50.966;7.094;2023-09-19T00:44:14;25.80;51.20
11989;DHT22;6054;50.966;7.094;2023-09-19T00:46:41;25.80;51.20
11989;DHT22;6054;50.966;7.094;2023-09-19T00:49:09;25.90;51.10
11989;DHT22;6054;50.966;7.094;2023-09-19T00:51:38;25.80;51.20
11989;DHT22;6054;50.966;7.094;2023-09-19T00:54:07;25.80;51.30
11989;DHT22;6054;50.966;7.094;2023-09-19T00:56:33;25.90;51.40
11989;DHT22;6054;50.966;7.094;2023-09-19T00:59:03;26.00;51.40
11989;DHT22;6054;50.966;7.094;2023-09-19T01:01:30;25.80;51.40
11989;DHT22;6054;50.966;7.094;2023-09-19T01:03:58;25.80;51.40
11989;DHT22;6054;50.966;7.094;2023-09-19T01:06:25;25.70;51.40
11989;DHT22;6054;50.966;7.094;2023-09-19T01:08:53;25.60;51.40
11989;DHT22;6054;50.966;7.094;2023-09-19T01:11:26;25.70;51.60
11989;DHT22;6054;50.966;7.094;2023-09-19T01:13:59;25.60;51.80
11989;DHT22;6054;50.966;7.094;2023-09-19T01:16:35;25.60;51.80
11989;DHT22;6054;50.966;7.094;2023-09-19T01:19:24;25.60;51.70
11989;DHT22;6054;50.966;7.094;2023-09-19T01:21:59;25.60;51.70
11989;DHT22;6054;50.966;7.094;2023-09-19T01:24:58;25.60;51.70
11989;DHT22;6054;50.966;7.094;2023-09-19T01:27:50;25.60;51.70
11989;DHT22;6054;50.966;7.094;2023-09-19T01:30:24;25.60;51.70
11989;DHT22;6054;50.966;7.094;2023-09-19T01:32:52;25.60;51.80
11989;DHT22;6054;50.966;7.094;2023-09-19T01:35:19;25.60;51.70
11989;DHT22;6054;50.966;7.094;2023-09-19T01:37:46;25.60;51.60
11989;DHT22;6054;50.966;7.094;2023-09-19T01:40:14;25.60;51.50
11989;DHT22;6054;50.966;7.094;2023-09-19T01:42:45;25.60;51.70
11989;DHT22;6054;50.966;7.094;2023-09-19T01:45:24;25.60;51.90
11989;DHT22;6054;50.966;7.094;2023-09-19T01:47:53;25.60;51.80
11989;DHT22;6054;50.966;7.094;2023-09-19T01:50:29;25.60;51.70
11989;DHT22;6054;50.966;7.094;2023-09-19T01:52:59;25.70;52.20
11989;DHT22;6054;50.966;7.094;2023-09-19T01:55:30;25.50;51.40
11989;DHT22;6054;50.966;7.094;2023-09-19T01:58:05;25.60;51.20
11989;DHT22;6054;50.966;7.094;2023-09-19T02:00:36;25.60;51.20
11989;DHT22;6054;50.966;7.094;2023-09-19T02:03:04;25.50;52.00
11989;DHT22;6054;50.966;7.094;2023-09-19T02:05:31;25.60;51.20
11989;DHT22;6054;50.966;7.094;2023-09-19T02:07:58;25.50;51.00
11989;DHT22;6054;50.966;7.094;2023-09-19T02:10:26;25.50;50.90
11989;DHT22;6054;50.966;7.094;2023-09-19T02:12:53;25.40;50.80
11989;DHT22;6054;50.966;7.094;2023-09-19T02:15:20;25.60;50.30
11989;DHT22;6054;50.966;7.094;2023-09-19T02:17:49;25.40;50.10
11989;DHT22;6054;50.966;7.094;2023-09-19T02:20:15;25.50;50.90
11989;DHT22;6054;50.966;7.094;2023-09-19T02:22:42;25.40;50.40
11989;DHT22;6054;50.966;7.094;2023-09-19T02:25:10;25.30;50.50
11989;DHT22;6054;50.966;7.094;2023-09-19T02:27:39;25.40;50.50
11989;DHT22;6054;50.966;7.094;2023-09-19T02:30:07;25.40;50.30
11989;DHT22;6054;50.966;7.094;2023-09-19T02:32:33;25.30;50.10
11989;DHT22;6054;50.966;7.094;2023-09-19T02:35:07;25.30;49.80
11989;DHT22;6054;50.966;7.094;2023-09-19T02:37:36;25.30;50.00
11989;DHT22;6054;50.966;7.094;2023-09-19T02:40:04;25.30;50.00
11989;DHT22;6054;50.966;7.094;2023-09-19T02:42:32;25.30;50.40
11989;DHT22;6054;50.966;7.094;2023-09-19T02:44:58;25.30;50.30
11989;DHT22;6054;50.966;7.094;2023-09-19T02:47:25;25.20;50.30
11989;DHT22;6054;50.966;7.094;2023-09-19T02:49:54;25.20;50.20
11989;DHT22;6054;50.966;7.094;2023-09-19T02:52:22;25.20;50.20
11989;DHT22;6054;50.966;7.094;2023-09-19T02:54:50;25.20;50.20
11989;DHT22;6054;50.966;7.094;2023-09-19T02:57:17;25.20;50.00
11989;DHT22;6054;50.966;7.094;2023-09-19T02:59:45;25.20;50.00
11989;DHT22;6054;50.966;7.094;2023-09-19T03:02:12;25.10;50.30
11989;DHT22;6054;50.966;7.094;2023-09-19T03:04:39;25.10;50.30
11989;DHT22;6054;50.966;7.094;2023-09-19T03:07:06;25.10;50.00
11989;DHT22;6054;50.966;7.094;2023-09-19T03:09:34;25.10;49.60
11989;DHT22;6054;50.966;7.094;2023-09-19T03:12:01;25.30;49.60
11989;DHT22;6054;50.966;7.094;2023-09-19T03:14:29;25.10;49.30
11989;DHT22;6054;50.966;7.094;2023-09-19T03:17:00;25.00;49.40
11989;DHT22;6054;50.966;7.094;2023-09-19T03:19:30;25.10;49.40
11989;DHT22;6054;50.966;7.094;2023-09-19T03:21:59;25.00;49.50
11989;DHT22;6054;50.966;7.094;2023-09-19T03:24:26;24.90;49.50
11989;DHT22;6054;50.966;7.094;2023-09-19T03:26:54;24.90;49.50
11989;DHT22;6054;50.966;7.094;2023-09-19T03:29:21;24.90;49.40
11989;DHT22;6054;50.966;7.094;2023-09-19T03:31:48;24.90;49.40
11989;DHT22;6054;50.966;7.094;2023-09-19T03:34:14;24.90;49.30
11989;DHT22;6054;50.966;7.094;2023-09-19T03:36:42;24.90;49.30
11989;DHT22;6054;50.966;7.094;2023-09-19T03:39:09;24.80;49.30
11989;DHT22;6054;50.966;7.094;2023-09-19T03:41:36;24.80;49.40
11989;DHT22;6054;50.966;7.094;2023-09-19T03:44:04;24.80;49.40
11989;DHT22;6054;50.966;7.094;2023-09-19T03:46:31;24.80;49.50
11989;DHT22;6054;50.966;7.094;2023-09-19T03:48:58;24.70;49.40
11989;DHT22;6054;50.966;7.094;2023-09-19T03:51:25;24.70;49.60
11989;DHT22;6054;50.966;7.094;2023-09-19T03:53:51;24.70;49.70
11989;DHT22;6054;50.966;7.094;2023-09-19T03:56:18;24.70;49.80
11989;DHT22;6054;50.966;7.094;2023-09-19T03:58:45;24.70;49.90
11989;DHT22;6054;50.966;7.094;2023-09-19T04:01:13;24.70;49.70
11989;DHT22;6054;50.966;7.094;2023-09-19T04:03:40;24.70;49.70
11989;DHT22;6054;50.966;7.094;2023-09-19T04:06:13;24.70;50.20
11989;DHT22;6054;50.966;7.094;2023-09-19T04:08:40;24.70;50.10
11989;DHT22;6054;50.966;7.094;2023-09-19T04:11:07;24.70;50.00
11989;DHT22;6054;50.966;7.094;2023-09-19T04:13:34;24.80;50.20
11989;DHT22;6054;50.966;7.094;2023-09-19T04:16:00;24.70;50.20
11989;DHT22;6054;50.966;7.094;2023-09-19T04:18:29;24.90;50.10
11989;DHT22;6054;50.966;7.094;2023-09-19T04:20:58;24.70;50.20
11989;DHT22;6054;50.966;7.094;2023-09-19T04:23:28;24.70;50.10
11989;DHT22;6054;50.966;7.094;2023-09-19T04:25:54;24.70;50.20
11989;DHT22;6054;50.966;7.094;2023-09-19T04:28:21;24.60;50.00
11989;DHT22;6054;50.966;7.094;2023-09-19T04:30:48;24.60;50.20
11989;DHT22;6054;50.966;7.094;2023-09-19T04:33:15;24.60;50.20
11989;DHT22;6054;50.966;7.094;2023-09-19T04:35:43;24.60;50.20
11989;DHT22;6054;50.966;7.094;2023-09-19T04:38:10;24.60;50.20
11989;DHT22;6054;50.966;7.094;2023-09-19T04:40:37;24.60;50.30
11989;DHT22;6054;50.966;7.094;2023-09-19T04:43:05;24.60;50.30
11989;DHT22;6054;50.966;7.094;2023-09-19T04:45:33;24.60;50.10
11989;DHT22;6054;50.966;7.094;2023-09-19T04:48:00;24.60;49.70
11989;DHT22;6054;50.966;7.094;2023-09-19T04:50:28;24.50;49.70
11989;DHT22;6054;50.966;7.094;2023-09-19T04:52:56;24.50;49.80
11989;DHT22;6054;50.966;7.094;2023-09-19T04:55:23;24.50;49.90
11989;DHT22;6054;50.966;7.094;2023-09-19T04:57:50;24.50;49.80
11989;DHT22;6054;50.966;7.094;2023-09-19T05:00:19;24.50;49.80
11989;DHT22;6054;50.966;7.094;2023-09-19T05:02:49;24.50;49.90
11989;DHT22;6054;50.966;7.094;2023-09-19T05:05:16;24.50;49.60
11989;DHT22;6054;50.966;7.094;2023-09-19T05:07:44;24.50;49.60
11989;DHT22;6054;50.966;7.094;2023-09-19T05:10:13;24.50;49.20
11989;DHT22;6054;50.966;7.094;2023-09-19T05:12:40;24.50;49.30
11989;DHT22;6054;50.966;7.094;2023-09-19T05:15:07;24.50;49.40
11989;DHT22;6054;50.966;7.094;2023-09-19T05:17:35;24.50;49.30
11989;DHT22;6054;50.966;7.094;2023-09-19T05:20:02;24.50;49.40
11989;DHT22;6054;50.966;7.094;2023-09-19T05:22:40;24.50;49.20
11989;DHT22;6054;50.966;7.094;2023-09-19T05:25:08;24.40;49.00
11989;DHT22;6054;50.966;7.094;2023-09-19T05:27:36;24.40;48.90
11989;DHT22;6054;50.966;7.094;2023-09-19T05:30:04;24.40;48.70
11989;DHT22;6054;50.966;7.094;2023-09-19T05:32:32;24.40;48.60
11989;DHT22;6054;50.966;7.094;2023-09-19T05:34:59;24.30;48.40
11989;DHT22;6054;50.966;7.094;2023-09-19T05:37:26;24.50;48.00
11989;DHT22;6054;50.966;7.094;2023-09-19T05:39:53;24.50;48.20
11989;DHT22;6054;50.966;7.094;2023-09-19T05:42:20;24.30;48.20
11989;DHT22;6054;50.966;7.094;2023-09-19T05:44:48;24.30;47.80
11989;DHT22;6054;50.966;7.094;2023-09-19T05:47:14;24.30;47.90
11989;DHT22;6054;50.966;7.094;2023-09-19T05:49:41;24.30;47.80
11989;DHT22;6054;50.966;7.094;2023-09-19T05:52:09;24.40;47.90
11989;DHT22;6054;50.966;7.094;2023-09-19T05:54:36;24.30;47.80
11989;DHT22;6054;50.966;7.094;2023-09-19T05:57:03;24.40;47.70
11989;DHT22;6054;50.966;7.094;2023-09-19T05:59:30;24.30;47.90
11989;DHT22;6054;50.966;7.094;2023-09-19T06:01:58;24.30;48.10
11989;DHT22;6054;50.966;7.094;2023-09-19T06:04:25;24.20;48.00
11989;DHT22;6054;50.966;7.094;2023-09-19T06:06:51;24.20;48.30
11989;DHT22;6054;50.966;7.094;2023-09-19T06:09:18;24.30;48.40
11989;DHT22;6054;50.966;7.094;2023-09-19T06:11:48;24.30;48.10
11989;DHT22;6054;50.966;7.094;2023-09-19T06:14:15;24.30;48.40
11989;DHT22;6054;50.966;7.094;2023-09-19T06:16:43;24.40;48.30
11989;DHT22;6054;50.966;7.094;2023-09-19T06:19:12;24.40;48.00
11989;DHT22;6054;50.966;7.094;2023-09-19T06:21:38;24.30;48.00
11989;DHT22;6054;50.966;7.094;2023-09-19T06:24:06;24.20;47.90
11989;DHT22;6054;50.966;7.094;2023-09-19T06:26:33;24.20;48.40
11989;DHT22;6054;50.966;7.094;2023-09-19T06:28:59;24.20;48.20
11989;DHT22;6054;50.966;7.094;2023-09-19T06:31:26;24.10;48.20
11989;DHT22;6054;50.966;7.094;2023-09-19T06:33:54;24.20;48.40
11989;DHT22;6054;50.966;7.094;2023-09-19T06:36:22;24.20;48.10
11989;DHT22;6054;50.966;7.094;2023-09-19T06:38:49;24.40;48.30
11989;DHT22;6054;50.966;7.094;2023-09-19T06:41:17;24.20;48.10
11989;DHT22;6054;50.966;7.094;2023-09-19T06:43:45;24.20;48.10
11989;DHT22;6054;50.966;7.094;2023-09-19T06:46:12;24.20;48.00
11989;DHT22;6054;50.966;7.094;2023-09-19T06:48:39;24.10;47.80
11989;DHT22;6054;50.966;7.094;2023-09-19T06:51:07;24.10;48.00
11989;DHT22;6054;50.966;7.094;2023-09-19T06:53:36;24.20;48.20
11989;DHT22;6054;50.966;7.094;2023-09-19T06:56:03;24.30;48.20
11989;DHT22;6054;50.966;7.094;2023-09-19T06:58:31;24.20;48.50
11989;DHT22;6054;50.966;7.094;2023-09-19T07:00:58;24.20;48.40
11989;DHT22;6054;50.966;7.094;2023-09-19T07:03:25;24.30;48.50
11989;DHT22;6054;50.966;7.094;2023-09-19T07:05:54;24.20;48.50
11989;DHT22;6054;50.966;7.094;2023-09-19T07:08:21;24.30;48.90
11989;DHT22;6054;50.966;7.094;2023-09-19T07:10:50;24.30;48.80
11989;DHT22;6054;50.966;7.094;2023-09-19T07:13:18;24.30;48.80
11989;DHT22;6054;50.966;7.094;2023-09-19T07:15:45;24.30;48.90
11989;DHT22;6054;50.966;7.094;2023-09-19T07:18:16;24.40;49.20
11989;DHT22;6054;50.966;7.094;2023-09-19T07:20:43;24.40;49.20
11989;DHT22;6054;50.966;7.094;2023-09-19T07:23:14;24.40;48.80
11989;DHT22;6054;50.966;7.094;2023-09-19T07:25:41;24.40;48.80
11989;DHT22;6054;50.966;7.094;2023-09-19T07:28:10;24.40;48.60
11989;DHT22;6054;50.966;7.094;2023-09-19T07:30:37;24.70;48.70
11989;DHT22;6054;50.966;7.094;2023-09-19T07:33:04;24.50;48.40
11989;DHT22;6054;50.966;7.094;2023-09-19T07:35:32;24.50;48.30
11989;DHT22;6054;50.966;7.094;2023-09-19T07:37:59;24.70;48.20
11989;DHT22;6054;50.966;7.094;2023-09-19T07:40:27;24.40;48.40
11989;DHT22;6054;50.966;7.094;2023-09-19T07:42:54;24.50;48.30
11989;DHT22;6054;50.966;7.094;2023-09-19T07:45:22;24.50;48.40
11989;DHT22;6054;50.966;7.094;2023-09-19T07:47:51;24.50;48.30
11989;DHT22;6054;50.966;7.094;2023-09-19T07:50:19;24.50;48.10
11989;DHT22;6054;50.966;7.094;2023-09-19T07:52:46;24.70;48.30
11989;DHT22;6054;50.966;7.094;2023-09-19T07:55:13;24.60;48.10
11989;DHT22;6054;50.966;7.094;2023-09-19T07:57:41;24.60;48.10
11989;DHT22;6054;50.966;7.094;2023-09-19T08:00:10;24.70;48.10
11989;DHT22;6054;50.966;7.094;2023-09-19T08:02:39;24.70;48.10
11989;DHT22;6054;50.966;7.094;2023-09-19T08:05:07;24.70;48.30
11989;DHT22;6054;50.966;7.094;2023-09-19T08:07:35;24.80;48.30
11989;DHT22;6054;50.966;7.094;2023-09-19T08:10:03;24.90;48.30
11989;DHT22;6054;50.966;7.094;2023-09-19T08:12:30;24.90;48.20
11989;DHT22;6054;50.966;7.094;2023-09-19T08:14:58;24.90;47.60
11989;DHT22;6054;50.966;7.094;2023-09-19T08:17:24;25.00;47.50
11989;DHT22;6054;50.966;7.094;2023-09-19T08:19:52;25.00;48.10
11989;DHT22;6054;50.966;7.094;2023-09-19T08:22:19;25.10;46.90
11989;DHT22;6054;50.966;7.094;2023-09-19T08:24:47;25.10;47.30
11989;DHT22;6054;50.966;7.094;2023-09-19T08:27:14;25.10;47.30
11989;DHT22;6054;50.966;7.094;2023-09-19T08:29:43;25.10;47.30
11989;DHT22;6054;50.966;7.094;2023-09-19T08:32:10;25.10;46.70
11989;DHT22;6054;50.966;7.094;2023-09-19T08:34:37;25.20;47.20
11989;DHT22;6054;50.966;7.094;2023-09-19T08:37:05;25.30;47.00
11989;DHT22;6054;50.966;7.094;2023-09-19T08:39:32;25.30;46.40
11989;DHT22;6054;50.966;7.094;2023-09-19T08:42:02;25.30;46.30
11989;DHT22;6054;50.966;7.094;2023-09-19T08:44:30;25.40;46.80
11989;DHT22;6054;50.966;7.094;2023-09-19T08:47:04;25.30;46.50
11989;DHT22;6054;50.966;7.094;2023-09-19T08:49:37;25.40;46.30
11989;DHT22;6054;50.966;7.094;2023-09-19T08:52:13;25.40;46.10
11989;DHT22;6054;50.966;7.094;2023-09-19T08:54:44;25.40;45.90
11989;DHT22;6054;50.966;7.094;2023-09-19T08:57:12;25.40;45.90
11989;DHT22;6054;50.966;7.094;2023-09-19T08:59:47;25.50;45.70
11989;DHT22;6054;50.966;7.094;2023-09-19T09:02:16;25.50;46.00
11989;DHT22;6054;50.966;7.094;2023-09-19T09:04:45;25.60;45.70
11989;DHT22;6054;50.966;7.094;2023-09-19T09:07:14;25.50;45.70
11989;DHT22;6054;50.966;7.094;2023-09-19T09:09:42;25.50;45.70
11989;DHT22;6054;50.966;7.094;2023-09-19T09:12:11;25.60;45.30
11989;DHT22;6054;50.966;7.094;2023-09-19T09:14:39;25.60;45.80
11989;DHT22;6054;50.966;7.094;2023-09-19T09:17:05;25.60;45.20
11989;DHT22;6054;50.966;7.094;2023-09-19T09:19:32;25.80;45.30
11989;DHT22;6054;50.966;7.094;2023-09-19T09:22:06;25.80;45.50
11989;DHT22;6054;50.966;7.094;2023-09-19T09:24:35;25.90;46.00
11989;DHT22;6054;50.966;7.094;2023-09-19T09:27:05;26.10;46.20
11989;DHT22;6054;50.966;7.094;2023-09-19T09:29:45;26.20;45.60
11989;DHT22;6054;50.966;7.094;2023-09-19T09:32:19;26.10;45.20
11989;DHT22;6054;50.966;7.094;2023-09-19T09:34:47;26.20;44.70
11989;DHT22;6054;50.966;7.094;2023-09-19T09:37:15;26.20;44.40
11989;DHT22;6054;50.966;7.094;2023-09-19T09:39:50;26.30;44.10
11989;DHT22;6054;50.966;7.094;2023-09-19T09:42:34;26.50;44.60
11989;DHT22;6054;50.966;7.094;2023-09-19T09:45:15;26.40;44.30
11989;DHT22;6054;50.966;7.094;2023-09-19T09:47:46;26.60;43.90
11989;DHT22;6054;50.966;7.094;2023-09-19T09:50:28;26.60;43.30
11989;DHT22;6054;50.966;7.094;2023-09-19T09:53:07;26.60;42.40
11989;DHT22;6054;50.966;7.094;2023-09-19T09:56:04;26.70;42.70
11989;DHT22;6054;50.966;7.094;2023-09-19T09:58:35;26.70;42.60
11989;DHT22;6054;50.966;7.094;2023-09-19T10:01:03;26.90;42.70
11989;DHT22;6054;50.966;7.094;2023-09-19T10:03:37;26.90;42.80
11989;DHT22;6054;50.966;7.094;2023-09-19T10:06:10;26.90;42.70
11989;DHT22;6054;50.966;7.094;2023-09-19T10:08:58;27.00;42.40
11989;DHT22;6054;50.966;7.094;2023-09-19T10:11:40;27.20;41.60
11989;DHT22;6054;50.966;7.094;2023-09-19T10:14:09;27.00;41.40
11989;DHT22;6054;50.966;7.094;2023-09-19T10:16:40;27.20;41.50
11989;DHT22;6054;50.966;7.094;2023-09-19T10:19:08;27.00;41.10
11989;DHT22;6054;50.966;7.094;2023-09-19T10:21:36;27.20;41.20
11989;DHT22;6054;50.966;7.094;2023-09-19T10:24:04;27.10;40.70
11989;DHT22;6054;50.966;7.094;2023-09-19T10:26:35;27.00;41.20
11989;DHT22;6054;50.966;7.094;2023-09-19T10:29:06;27.20;41.10
11989;DHT22;6054;50.966;7.094;2023-09-19T10:31:36;27.00;41.20
11989;DHT22;6054;50.966;7.094;2023-09-19T10:34:07;27.00;41.20
11989;DHT22;6054;50.966;7.094;2023-09-19T10:36:36;27.00;41.20
11989;DHT22;6054;50.966;7.094;2023-09-19T10:39:05;27.10;41.10
11989;DHT22;6054;50.966;7.094;2023-09-19T10:41:34;27.10;41.30
11989;DHT22;6054;50.966;7.094;2023-09-19T10:44:04;27.10;41.50
11989;DHT22;6054;50.966;7.094;2023-09-19T10:46:32;27.10;41.80
11989;DHT22;6054;50.966;7.094;2023-09-19T10:48:59;27.20;42.00
11989;DHT22;6054;50.966;7.094;2023-09-19T10:51:30;27.20;42.10
11989;DHT22;6054;50.966;7.094;2023-09-19T10:54:02;27.20;41.80
11989;DHT22;6054;50.966;7.094;2023-09-19T10:56:35;27.30;42.60
11989;DHT22;6054;50.966;7.094;2023-09-19T10:59:09;27.30;42.10
11989;DHT22;6054;50.966;7.094;2023-09-19T11:01:45;27.40;41.60
11989;DHT22;6054;50.966;7.094;2023-09-19T11:04:24;27.50;41.40
11989;DHT22;6054;50.966;7.094;2023-09-19T11:07:02;27.40;41.10
11989;DHT22;6054;50.966;7.094;2023-09-19T11:09:51;27.40;41.10
11989;DHT22;6054;50.966;7.094;2023-09-19T11:12:49;27.40;40.40
11989;DHT22;6054;50.966;7.094;2023-09-19T11:18:56;27.40;40.70
11989;DHT22;6054;50.966;7.094;2023-09-19T11:21:52;27.40;40.40
11989;DHT22;6054;50.966;7.094;2023-09-19T11:24:32;27.50;40.30
11989;DHT22;6054;50.966;7.094;2023-09-19T11:27:15;27.50;40.00
11989;DHT22;6054;50.966;7.094;2023-09-19T11:29:43;27.40;40.00
11989;DHT22;6054;50.966;7.094;2023-09-19T11:32:10;27.60;40.50
11989;DHT22;6054;50.966;7.094;2023-09-19T11:34:46;27.50;40.00
11989;DHT22;6054;50.966;7.094;2023-09-19T11:40:35;27.60;40.10
11989;DHT22;6054;50.966;7.094;2023-09-19T11:43:29;27.70;40.00
11989;DHT22;6054;50.966;7.094;2023-09-19T11:48:40;27.70;40.30
11989;DHT22;6054;50.966;7.094;2023-09-19T11:51:17;27.90;39.80
11989;DHT22;6054;50.966;7.094;2023-09-19T11:53:53;27.70;39.80
11989;DHT22;6054;50.966;7.094;2023-09-19T11:56:21;27.80;40.20
11989;DHT22;6054;50.966;7.094;2023-09-19T11:58:50;27.80;40.20
11989;DHT22;6054;50.966;7.094;2023-09-19T12:01:22;27.90;40.10
11989;DHT22;6054;50.966;7.094;2023-09-19T12:03:53;27.90;39.80
11989;DHT22;6054;50.966;7.094;2023-09-19T12:06:21;27.90;39.10
11989;DHT22;6054;50.966;7.094;2023-09-19T12:08:49;27.80;38.80
11989;DHT22;6054;50.966;7.094;2023-09-19T12:11:20;27.80;38.70
11989;DHT22;6054;50.966;7.094;2023-09-19T12:13:49;27.80;39.00
11989;DHT22;6054;50.966;7.094;2023-09-19T12:16:18;27.90;38.50
11989;DHT22;6054;50.966;7.094;2023-09-19T12:18:47;28.00;38.00
11989;DHT22;6054;50.966;7.094;2023-09-19T12:21:23;27.90;38.40
11989;DHT22;6054;50.966;7.094;2023-09-19T12:24:03;28.00;38.60
11989;DHT22;6054;50.966;7.094;2023-09-19T12:26:39;28.10;37.10
11989;DHT22;6054;50.966;7.094;2023-09-19T12:29:14;28.00;36.30
11989;DHT22;6054;50.966;7.094;2023-09-19T12:31:50;28.10;36.30
11989;DHT22;6054;50.966;7.094;2023-09-19T12:34:19;28.00;36.00
11989;DHT22;6054;50.966;7.094;2023-09-19T12:36:48;28.10;35.90
11989;DHT22;6054;50.966;7.094;2023-09-19T12:39:24;28.30;36.00
11989;DHT22;6054;50.966;7.094;2023-09-19T12:41:52;28.30;35.80
11989;DHT22;6054;50.966;7.094;2023-09-19T12:44:20;28.40;35.50
11989;DHT22;6054;50.966;7.094;2023-09-19T12:46:46;28.30;35.50
11989;DHT22;6054;50.966;7.094;2023-09-19T12:49:17;28.50;35.70
11989;DHT22;6054;50.966;7.094;2023-09-19T12:51:45;28.40;35.70
11989;DHT22;6054;50.966;7.094;2023-09-19T12:54:14;28.40;36.20
11989;DHT22;6054;50.966;7.094;2023-09-19T12:56:43;28.60;36.30
11989;DHT22;6054;50.966;7.094;2023-09-19T12:59:12;28.80;36.50
11989;DHT22;6054;50.966;7.094;2023-09-19T13:01:40;28.60;36.40
11989;DHT22;6054;50.966;7.094;2023-09-19T13:04:15;28.70;36.50
11989;DHT22;6054;50.966;7.094;2023-09-19T13:06:45;28.70;36.30
11989;DHT22;6054;50.966;7.094;2023-09-19T13:09:16;28.80;35.30
11989;DHT22;6054;50.966;7.094;2023-09-19T13:11:43;28.70;35.80
11989;DHT22;6054;50.966;7.094;2023-09-19T13:14:15;28.80;35.80
11989;DHT22;6054;50.966;7.094;2023-09-19T13:16:53;28.70;35.70
11989;DHT22;6054;50.966;7.094;2023-09-19T13:19:35;28.70;36.00
11989;DHT22;6054;50.966;7.094;2023-09-19T13:22:02;28.70;36.50
11989;DHT22;6054;50.966;7.094;2023-09-19T13:24:31;28.70;36.40
11989;DHT22;6054;50.966;7.094;2023-09-19T13:27:00;28.70;36.40
11989;DHT22;6054;50.966;7.094;2023-09-19T13:29:29;28.80;35.70
11989;DHT22;6054;50.966;7.094;2023-09-19T13:31:55;28.80;35.50
11989;DHT22;6054;50.966;7.094;2023-09-19T13:34:22;28.80;35.60
11989;DHT22;6054;50.966;7.094;2023-09-19T13:36:50;28.80;35.80
11989;DHT22;6054;50.966;7.094;2023-09-19T13:39:17;28.80;35.30
11989;DHT22;6054;50.966;7.094;2023-09-19T13:41:46;28.80;35.90
11989;DHT22;6054;50.966;7.094;2023-09-19T13:44:13;29.10;36.60
11989;DHT22;6054;50.966;7.094;2023-09-19T13:46:41;29.00;35.90
11989;DHT22;6054;50.966;7.094;2023-09-19T13:49:11;29.20;35.90
11989;DHT22;6054;50.966;7.094;2023-09-19T13:51:38;29.00;35.90
11989;DHT22;6054;50.966;7.094;2023-09-19T13:54:08;29.00;35.60
11989;DHT22;6054;50.966;7.094;2023-09-19T13:56:37;29.10;35.80
11989;DHT22;6054;50.966;7.094;2023-09-19T13:59:05;28.90;35.70
11989;DHT22;6054;50.966;7.094;2023-09-19T14:01:32;28.90;36.00
11989;DHT22;6054;50.966;7.094;2023-09-19T14:03:59;29.10;35.90
11989;DHT22;6054;50.966;7.094;2023-09-19T14:06:25;28.90;35.50
11989;DHT22;6054;50.966;7.094;2023-09-19T14:08:52;29.10;36.20
11989;DHT22;6054;50.966;7.094;2023-09-19T14:11:19;28.90;36.10
11989;DHT22;6054;50.966;7.094;2023-09-19T14:13:45;29.10;36.30
11989;DHT22;6054;50.966;7.094;2023-09-19T14:16:16;29.10;36.20
11989;DHT22;6054;50.966;7.094;2023-09-19T14:18:44;29.10;36.10
11989;DHT22;6054;50.966;7.094;2023-09-19T14:21:11;29.00;35.80
11989;DHT22;6054;50.966;7.094;2023-09-19T14:23:38;29.00;35.70
11989;DHT22;6054;50.966;7.094;2023-09-19T14:26:05;29.00;36.40
11989;DHT22;6054;50.966;7.094;2023-09-19T14:28:32;28.90;36.10
11989;DHT22;6054;50.966;7.094;2023-09-19T14:31:04;29.10;37.10
11989;DHT22;6054;50.966;7.094;2023-09-19T14:33:33;29.00;36.60
11989;DHT22;6054;50.966;7.094;2023-09-19T14:36:03;28.80;36.20
11989;DHT22;6054;50.966;7.094;2023-09-19T14:38:31;28.80;36.70
11989;DHT22;6054;50.966;7.094;2023-09-19T14:40:59;29.00;36.50
11989;DHT22;6054;50.966;7.094;2023-09-19T14:43:26;28.90;36.90
11989;DHT22;6054;50.966;7.094;2023-09-19T14:45:54;28.80;36.60
11989;DHT22;6054;50.966;7.094;2023-09-19T14:48:22;28.70;36.70
11989;DHT22;6054;50.966;7.094;2023-09-19T14:50:52;28.70;36.80
11989;DHT22;6054;50.966;7.094;2023-09-19T14:53:20;28.70;36.70
11989;DHT22;6054;50.966;7.094;2023-09-19T14:55:47;28.70;37.00
11989;DHT22;6054;50.966;7.094;2023-09-19T14:58:17;28.70;36.60
11989;DHT22;6054;50.966;7.094;2023-09-19T15:00:44;28.70;36.90
11989;DHT22;6054;50.966;7.094;2023-09-19T15:03:11;28.60;36.90
11989;DHT22;6054;50.966;7.094;2023-09-19T15:05:39;28.60;36.90
11989;DHT22;6054;50.966;7.094;2023-09-19T15:08:07;28.70;36.80
11989;DHT22;6054;50.966;7.094;2023-09-19T15:10:33;28.60;36.80
11989;DHT22;6054;50.966;7.094;2023-09-19T15:13:00;28.70;37.10
11989;DHT22;6054;50.966;7.094;2023-09-19T15:15:27;28.60;37.20
11989;DHT22;6054;50.966;7.094;2023-09-19T15:17:54;28.80;37.20
11989;DHT22;6054;50.966;7.094;2023-09-19T15:20:20;28.80;37.50
11989;DHT22;6054;50.966;7.094;2023-09-19T15:22:47;28.80;37.40
11989;DHT22;6054;50.966;7.094;2023-09-19T15:25:16;28.70;37.30
11989;DHT22;6054;50.966;7.094;2023-09-19T15:27:43;28.70;37.30
11989;DHT22;6054;50.966;7.094;2023-09-19T15:30:11;28.70;37.30
11989;DHT22;6054;50.966;7.094;2023-09-19T15:32:40;28.60;37.40
11989;DHT22;6054;50.966;7.094;2023-09-19T15:35:08;28.70;36.80
11989;DHT22;6054;50.966;7.094;2023-09-19T15:37:39;28.50;37.10
11989;DHT22;6054;50.966;7.094;2023-09-19T15:40:07;28.50;37.20
11989;DHT22;6054;50.966;7.094;2023-09-19T15:42:37;28.50;37.70
11989;DHT22;6054;50.966;7.094;2023-09-19T15:45:05;28.50;37.20
11989;DHT22;6054;50.966;7.094;2023-09-19T15:47:32;28.50;38.20
11989;DHT22;6054;50.966;7.094;2023-09-19T15:49:59;28.60;37.30
11989;DHT22;6054;50.966;7.094;2023-09-19T15:52:26;28.40;36.50
11989;DHT22;6054;50.966;7.094;2023-09-19T15:54:53;28.60;36.90
11989;DHT22;6054;50.966;7.094;2023-09-19T15:57:19;28.40;37.10
11989;DHT22;6054;50.966;7.094;2023-09-19T15:59:48;28.40;37.10
11989;DHT22;6054;50.966;7.094;2023-09-19T16:02:15;28.40;36.30
11989;DHT22;6054;50.966;7.094;2023-09-19T16:04:44;28.50;36.70
11989;DHT22;6054;50.966;7.094;2023-09-19T16:07:10;28.40;36.90
11989;DHT22;6054;50.966;7.094;2023-09-19T16:09:37;28.40;37.20